Terminal Aerodrome Forecast
Issued by NWS

Home | Current Version | Previous Version | Text Only | Print | Product List | Glossary On
Versions: 1 2 3 4 5 6 7 8 9 10 11 12 13 14 15 16 17 18 19 20 21 22 23 24 25 26 27 28 29 30 31
447
FTUS43 KDLH 062340
TAFHIB
TAF
KHIB 062340Z 0700/0724 19007KT 1 1/2SM -SN BR FEW012 BKN018 OVC022
      TEMPO 0700/0702 3/4SM -SN BKN002 OVC009
     FM070200 24011G21KT 3SM -SN BLSN OVC015
     FM070800 26014G24KT 2SM -SN BLSN OVC010
     FM071800 27012G22KT 3SM -SN BLSN OVC010=

USA.gov is the U.S. government's official web portal to all federal, state and local government web resources and services.